createdAt,value
2024-03-12T00:02:13.204Z,53.11
2024-03-12T00:04:42.315Z,53.83
2024-03-12T00:07:11.412Z,53.36
2024-03-12T00:09:39.802Z,53.53
2024-03-12T00:12:08.690Z,53.53
2024-03-12T00:14:37.116Z,54.18
2024-03-12T00:17:09.560Z,54.53
2024-03-12T00:19:38.242Z,55.13
2024-03-12T00:22:06.632Z,54.84
2024-03-12T00:24:35.255Z,55.05
2024-03-12T00:27:03.609Z,55.63
2024-03-12T00:29:31.849Z,55.42
2024-03-12T00:32:00.097Z,55.41
2024-03-12T00:34:31.272Z,55.60
2024-03-12T00:37:01.800Z,55.38
2024-03-12T00:39:31.220Z,55.48
2024-03-12T00:42:00.118Z,55.65
2024-03-12T00:44:28.745Z,55.51
2024-03-12T00:46:57.012Z,55.82
2024-03-12T00:49:26.963Z,55.31
2024-03-12T00:51:55.929Z,55.20
2024-03-12T00:54:26.374Z,54.98
2024-03-12T00:56:56.766Z,54.74
2024-03-12T00:59:25.606Z,54.58
2024-03-12T01:01:54.233Z,53.99
2024-03-12T01:04:23.264Z,53.90
2024-03-12T01:06:52.993Z,53.41
2024-03-12T01:09:23.189Z,53.61
2024-03-12T01:11:54.251Z,53.48
2024-03-12T01:14:22.620Z,53.46
2024-03-12T01:16:50.902Z,53.46
2024-03-12T01:19:21.362Z,53.37
2024-03-12T01:21:50.091Z,53.32
2024-03-12T01:24:20.424Z,52.82
2024-03-12T01:26:52.852Z,53.23
2024-03-12T01:29:23.736Z,52.75
2024-03-12T01:31:53.832Z,52.58
2024-03-12T01:34:24.117Z,52.43
2024-03-12T01:36:55.131Z,52.46
2024-03-12T01:39:27.741Z,52.66
2024-03-12T01:41:58.357Z,52.01
2024-03-12T01:44:26.990Z,52.23
2024-03-12T01:46:56.056Z,52.31
2024-03-12T01:49:24.401Z,52.23
2024-03-12T01:51:54.645Z,52.42
2024-03-12T01:54:22.991Z,51.90
2024-03-12T01:56:51.493Z,52.11
2024-03-12T01:59:21.260Z,52.36
2024-03-12T02:01:49.582Z,52.21
2024-03-12T02:04:18.027Z,52.28
2024-03-12T02:06:46.510Z,52.29
2024-03-12T02:09:15.491Z,52.29
2024-03-12T02:11:43.687Z,52.29
2024-03-12T02:14:12.688Z,52.33
2024-03-12T02:16:42.435Z,52.44
2024-03-12T02:19:10.964Z,52.30
2024-03-12T02:21:39.395Z,52.31
2024-03-12T02:24:09.884Z,51.93
2024-03-12T02:26:38.211Z,52.41
2024-03-12T02:29:09.055Z,52.14
2024-03-12T02:31:37.440Z,52.54
2024-03-12T02:34:06.020Z,52.44
2024-03-12T02:36:38.346Z,52.02
2024-03-12T02:39:07.858Z,52.30
2024-03-12T02:41:37.791Z,52.22
2024-03-12T02:44:06.502Z,51.43
2024-03-12T02:46:35.094Z,51.37
2024-03-12T02:49:03.998Z,51.33
2024-03-12T02:51:32.342Z,51.52
2024-03-12T02:54:01.016Z,51.33
2024-03-12T02:56:29.247Z,51.32
2024-03-12T02:58:59.050Z,51.82
2024-03-12T03:01:27.334Z,51.54
2024-03-12T03:03:55.775Z,51.65
2024-03-12T03:06:24.838Z,51.52
2024-03-12T03:08:53.215Z,51.68
2024-03-12T03:11:21.742Z,51.58
2024-03-12T03:13:50.051Z,51.79
2024-03-12T03:16:21.682Z,51.07
2024-03-12T03:18:49.948Z,51.54
2024-03-12T03:21:18.585Z,51.91
2024-03-12T03:23:46.967Z,51.51
2024-03-12T03:26:15.291Z,51.49
2024-03-12T03:28:43.630Z,51.47
2024-03-12T03:31:12.575Z,51.67
2024-03-12T03:33:44.876Z,51.54
2024-03-12T03:36:15.047Z,51.74
2024-03-12T03:38:43.325Z,51.81
2024-03-12T03:41:12.316Z,51.98
2024-03-12T03:43:44.390Z,52.19
2024-03-12T03:46:12.811Z,52.08
2024-03-12T03:48:42.723Z,51.98
2024-03-12T03:51:11.401Z,52.32
2024-03-12T03:53:41.525Z,52.40
2024-03-12T03:56:17.188Z,52.67
2024-03-12T03:58:45.669Z,52.78
2024-03-12T04:01:15.389Z,52.84
2024-03-12T04:03:46.134Z,52.06
2024-03-12T04:06:14.460Z,52.61
2024-03-12T04:08:42.769Z,51.97
2024-03-12T04:11:11.216Z,52.29
2024-03-12T04:13:41.508Z,51.64
2024-03-12T04:16:10.051Z,51.53
2024-03-12T04:18:39.437Z,51.38
2024-03-12T04:21:09.684Z,51.82
2024-03-12T04:23:38.009Z,51.59
2024-03-12T04:26:06.479Z,51.97
2024-03-12T04:28:34.797Z,52.68
2024-03-12T04:31:03.135Z,52.38
2024-03-12T04:33:30.381Z,53.53
2024-03-12T04:35:58.660Z,53.78
2024-03-12T04:38:31.557Z,54.33
2024-03-12T04:41:00.162Z,54.01
2024-03-12T04:43:28.478Z,54.43
2024-03-12T04:45:56.832Z,54.43
2024-03-12T04:48:25.378Z,54.95
2024-03-12T04:50:54.667Z,54.81
2024-03-12T04:53:24.274Z,54.15
2024-03-12T04:55:54.048Z,54.79
2024-03-12T04:58:22.152Z,54.51
2024-03-12T05:00:50.611Z,54.70
2024-03-12T05:03:18.938Z,55.69
2024-03-12T05:05:47.464Z,54.95
2024-03-12T05:08:15.719Z,55.50
2024-03-12T05:10:43.974Z,55.80
2024-03-12T05:13:13.799Z,56.15
2024-03-12T05:15:42.011Z,56.04
2024-03-12T05:18:10.282Z,56.00
2024-03-12T05:20:38.582Z,55.74
2024-03-12T05:23:11.546Z,55.40
2024-03-12T05:25:43.749Z,54.69
2024-03-12T05:28:13.876Z,54.38
2024-03-12T05:30:42.869Z,54.71
2024-03-12T05:33:15.869Z,54.59
2024-03-12T05:35:49.140Z,54.49
2024-03-12T05:38:34.069Z,54.71
2024-03-12T05:41:26.645Z,53.85
2024-03-12T05:44:13.808Z,53.76
2024-03-12T05:46:59.966Z,54.59
2024-03-12T05:49:28.243Z,54.29
2024-03-12T05:51:57.042Z,54.64
2024-03-12T05:54:25.538Z,54.08
2024-03-12T05:56:53.957Z,54.40
2024-03-12T05:59:24.249Z,55.52
2024-03-12T06:01:52.661Z,55.44
2024-03-12T06:04:21.314Z,56.08
2024-03-12T06:06:49.667Z,55.71
2024-03-12T06:09:23.810Z,55.69
2024-03-12T06:11:52.490Z,56.37
2024-03-12T06:14:20.935Z,56.05
2024-03-12T06:16:50.635Z,56.44
2024-03-12T06:19:18.965Z,55.91
2024-03-12T06:21:47.406Z,56.19
2024-03-12T06:24:15.886Z,56.40
2024-03-12T06:26:45.368Z,56.56
2024-03-12T06:29:15.306Z,57.04
2024-03-12T06:31:43.613Z,56.64
2024-03-12T06:34:13.394Z,56.91
2024-03-12T06:36:41.685Z,56.85
2024-03-12T06:39:12.522Z,56.81
2024-03-12T06:41:42.647Z,56.65
2024-03-12T06:44:13.187Z,56.96
2024-03-12T06:46:41.586Z,57.11
2024-03-12T06:49:10.840Z,57.66
2024-03-12T06:51:40.871Z,57.57
2024-03-12T06:54:12.557Z,57.64
2024-03-12T06:56:44.213Z,57.94
2024-03-12T06:59:15.319Z,58.65
2024-03-12T07:01:44.990Z,58.90
2024-03-12T07:04:14.971Z,58.91
2024-03-12T07:06:46.743Z,58.52
2024-03-12T07:09:24.380Z,58.85
2024-03-12T07:11:53.443Z,58.08
2024-03-12T07:14:28.946Z,58.53
2024-03-12T07:16:58.012Z,58.04
2024-03-12T07:19:26.543Z,57.90
2024-03-12T07:21:57.368Z,58.59
2024-03-12T07:24:25.721Z,58.68
2024-03-12T07:26:54.409Z,58.84
2024-03-12T07:29:24.809Z,58.28
2024-03-12T07:31:53.776Z,58.17
2024-03-12T07:34:22.815Z,58.08
2024-03-12T07:36:51.358Z,57.97
2024-03-12T07:39:28.269Z,57.23
2024-03-12T07:41:57.956Z,57.08
2024-03-12T07:44:26.330Z,57.12
2024-03-12T07:46:56.250Z,57.14
2024-03-12T07:49:24.982Z,56.73
2024-03-12T07:51:54.246Z,56.71
2024-03-12T07:54:24.811Z,56.39
2024-03-12T07:56:52.970Z,55.95
2024-03-12T07:59:23.701Z,56.31
2024-03-12T08:01:54.268Z,56.43
2024-03-12T08:04:23.444Z,55.94
2024-03-12T08:06:51.726Z,55.77
2024-03-12T08:09:20.852Z,55.19
2024-03-12T08:11:51.278Z,54.87
2024-03-12T08:14:19.875Z,54.73
2024-03-12T08:16:49.352Z,55.10
2024-03-12T08:19:17.740Z,54.59
2024-03-12T08:21:46.052Z,54.71
2024-03-12T08:24:14.401Z,53.86
2024-03-12T08:26:44.762Z,53.69
2024-03-12T08:29:16.379Z,52.87
2024-03-12T08:31:51.674Z,52.11
2024-03-12T08:34:24.128Z,51.59
2024-03-12T08:36:52.428Z,50.96
2024-03-12T08:39:23.330Z,51.22
2024-03-12T08:41:51.755Z,50.21
2024-03-12T08:44:22.089Z,51.46
2024-03-12T08:46:51.205Z,51.83
2024-03-12T08:49:19.709Z,50.68
2024-03-12T08:51:48.065Z,51.61
2024-03-12T08:54:16.286Z,51.33
2024-03-12T08:56:44.699Z,50.13
2024-03-12T08:59:15.375Z,49.38
2024-03-12T09:01:46.318Z,48.67
2024-03-12T09:04:14.942Z,46.60
2024-03-12T09:06:43.614Z,45.35
2024-03-12T09:09:15.407Z,44.34
2024-03-12T09:11:43.575Z,43.95
2024-03-12T09:14:11.989Z,44.41
2024-03-12T09:16:40.724Z,44.94
2024-03-12T09:19:10.672Z,44.66
2024-03-12T09:21:39.251Z,44.63
2024-03-12T09:24:09.494Z,44.85
2024-03-12T09:26:37.787Z,45.02
2024-03-12T09:29:07.283Z,44.74
2024-03-12T09:31:39.359Z,44.99
2024-03-12T09:34:09.284Z,44.82
2024-03-12T09:36:37.475Z,45.18
2024-03-12T09:39:12.352Z,45.25
2024-03-12T09:41:43.484Z,45.21
2024-03-12T09:44:13.421Z,45.20
2024-03-12T09:46:43.010Z,45.24
2024-03-12T09:49:15.056Z,45.31
2024-03-12T09:51:43.492Z,44.93
2024-03-12T09:54:13.059Z,44.49
2024-03-12T09:56:42.265Z,44.49
2024-03-12T09:59:10.503Z,44.03
2024-03-12T10:01:40.755Z,43.58
2024-03-12T10:04:13.385Z,43.37
2024-03-12T10:06:43.497Z,42.75
2024-03-12T10:09:16.418Z,42.32
2024-03-12T10:11:46.239Z,41.55
2024-03-12T10:14:18.961Z,41.81
2024-03-12T10:16:47.426Z,41.39
2024-03-12T10:19:17.005Z,40.88
2024-03-12T10:21:49.152Z,40.47
2024-03-12T10:24:23.061Z,36.46
2024-03-12T10:26:52.099Z,32.68
2024-03-12T10:29:20.813Z,31.27
2024-03-12T10:31:51.458Z,27.87
2024-03-12T10:34:21.326Z,26.05
2024-03-12T10:36:52.148Z,25.84
2024-03-12T10:39:29.386Z,24.79
2024-03-12T10:42:00.617Z,22.29
2024-03-12T10:44:30.537Z,20.15
2024-03-12T10:47:02.303Z,19.05
2024-03-12T10:49:30.940Z,19.01
2024-03-12T10:52:01.242Z,19.04
2024-03-12T10:54:36.391Z,17.45
2024-03-12T10:57:07.982Z,15.91
2024-03-12T10:59:39.192Z,14.61
2024-03-12T11:02:09.103Z,13.20
2024-03-12T11:04:37.820Z,12.58
2024-03-12T11:07:09.638Z,11.66
2024-03-12T11:09:38.321Z,10.74
2024-03-12T11:12:06.928Z,10.71
2024-03-12T11:14:35.202Z,11.38
2024-03-12T11:17:03.555Z,12.52
2024-03-12T11:19:35.277Z,15.08
2024-03-12T11:22:13.168Z,16.87
2024-03-12T11:24:51.316Z,19.59
2024-03-12T11:27:26.424Z,20.87
2024-03-12T11:30:13.040Z,19.33
2024-03-12T11:32:43.203Z,19.93
2024-03-12T11:35:29.616Z,22.20
2024-03-12T11:38:11.459Z,23.80
2024-03-12T11:40:50.482Z,25.39
2024-03-12T11:43:39.320Z,27.26
2024-03-12T11:46:08.593Z,28.66
2024-03-12T11:48:38.248Z,29.64
2024-03-12T11:51:10.459Z,30.16
2024-03-12T11:53:41.182Z,30.38
2024-03-12T11:56:17.181Z,30.57
2024-03-12T11:58:50.484Z,30.88
2024-03-12T12:01:20.966Z,30.40
2024-03-12T12:03:51.805Z,30.42
2024-03-12T12:06:21.575Z,30.13
2024-03-12T12:08:57.337Z,30.14
2024-03-12T12:11:29.868Z,30.78
2024-03-12T12:14:01.646Z,31.24
2024-03-12T12:16:31.036Z,31.09
2024-03-12T12:19:07.703Z,31.57
2024-03-12T12:21:37.148Z,32.23
2024-03-12T12:24:09.738Z,32.08
2024-03-12T12:26:40.180Z,32.64
2024-03-12T12:29:10.955Z,32.60
2024-03-12T12:31:40.519Z,32.71
2024-03-12T12:34:11.720Z,32.44
2024-03-12T12:36:45.375Z,32.51
2024-03-12T12:39:18.581Z,32.83
2024-03-12T12:41:47.793Z,32.75
2024-03-12T12:44:18.972Z,32.78
2024-03-12T12:46:49.396Z,32.80
2024-03-12T12:49:19.010Z,32.95
2024-03-12T12:51:48.242Z,32.66
2024-03-12T12:54:20.216Z,32.81
2024-03-12T12:56:50.448Z,32.80
2024-03-12T12:59:21.610Z,33.43
2024-03-12T13:01:50.997Z,33.43
2024-03-12T13:04:24.517Z,33.29
2024-03-12T13:06:55.750Z,33.85
2024-03-12T13:09:34.472Z,33.75
2024-03-12T13:12:04.853Z,34.63
2024-03-12T13:14:33.662Z,33.95
2024-03-12T13:17:02.326Z,34.18
2024-03-12T13:19:30.944Z,33.89
2024-03-12T13:22:01.049Z,34.35
2024-03-12T13:24:31.854Z,34.63
2024-03-12T13:27:00.586Z,34.92
2024-03-12T13:29:29.764Z,34.69
2024-03-12T13:31:58.171Z,34.68
2024-03-12T13:34:26.637Z,35.21
2024-03-12T13:36:54.962Z,34.40
2024-03-12T13:39:23.238Z,34.75
2024-03-12T13:41:52.919Z,34.69
2024-03-12T13:44:22.895Z,35.20
2024-03-12T13:46:51.360Z,35.55
2024-03-12T13:49:21.371Z,35.60
2024-03-12T13:51:50.421Z,35.53
2024-03-12T13:54:18.968Z,35.91
2024-03-12T13:56:47.598Z,36.01
2024-03-12T13:59:19.006Z,35.75
2024-03-12T14:01:49.014Z,36.25
2024-03-12T14:04:18.439Z,35.98
2024-03-12T14:06:48.971Z,35.94
2024-03-12T14:09:18.639Z,36.38
2024-03-12T14:11:47.025Z,36.78
2024-03-12T14:14:17.131Z,37.03
2024-03-12T14:16:46.288Z,37.30
2024-03-12T14:19:14.670Z,37.35
2024-03-12T14:21:42.940Z,36.99
2024-03-12T14:24:11.639Z,37.15
2024-03-12T14:26:40.157Z,36.78
2024-03-12T14:29:11.939Z,36.85
2024-03-12T14:31:42.847Z,36.56
2024-03-12T14:34:12.056Z,36.61
2024-03-12T14:36:41.471Z,36.41
2024-03-12T14:39:11.941Z,36.57
2024-03-12T14:41:40.484Z,36.72
2024-03-12T14:44:09.210Z,36.44
2024-03-12T14:46:37.740Z,36.75
2024-03-12T14:49:08.555Z,36.22
2024-03-12T14:51:37.031Z,36.53
2024-03-12T14:54:05.623Z,36.54
2024-03-12T14:56:34.139Z,36.56
2024-03-12T14:59:05.051Z,36.27
2024-03-12T15:01:33.528Z,36.30
2024-03-12T15:04:02.770Z,36.69
2024-03-12T15:06:33.834Z,36.63
2024-03-12T15:09:03.927Z,36.75
2024-03-12T15:11:32.928Z,36.38
2024-03-12T15:14:01.352Z,36.14
2024-03-12T15:16:29.707Z,36.22
2024-03-12T15:18:58.564Z,35.82
2024-03-12T15:21:28.192Z,35.68
2024-03-12T15:23:58.055Z,35.25
2024-03-12T15:26:26.375Z,35.36
2024-03-12T15:28:54.594Z,35.19
2024-03-12T15:31:22.962Z,35.28
2024-03-12T15:33:53.371Z,35.22
2024-03-12T15:36:22.402Z,35.24
2024-03-12T15:38:52.023Z,35.72
2024-03-12T15:41:21.691Z,35.37
2024-03-12T15:43:50.000Z,36.04
2024-03-12T15:46:21.727Z,36.25
2024-03-12T15:48:50.350Z,36.69
2024-03-12T15:51:19.805Z,36.70
2024-03-12T15:53:47.982Z,36.86
2024-03-12T17:41:56.256Z,42.32
2024-03-12T17:44:25.685Z,42.25
2024-03-12T17:46:56.211Z,42.01
2024-03-12T17:49:27.866Z,42.79
2024-03-12T17:51:56.656Z,42.74
2024-03-12T17:54:25.940Z,41.83
2024-03-12T17:56:59.411Z,42.17
2024-03-12T17:59:28.240Z,42.26
2024-03-12T18:01:57.220Z,43.19
2024-03-12T18:04:26.443Z,42.20
2024-03-12T18:07:01.017Z,42.85
2024-03-12T18:09:33.138Z,42.98
2024-03-12T18:12:03.609Z,42.78
2024-03-12T18:14:33.056Z,42.93
2024-03-12T18:17:02.092Z,42.98
2024-03-12T18:19:30.285Z,42.38
2024-03-12T18:21:58.988Z,42.61
2024-03-12T18:24:27.450Z,42.78
2024-03-12T18:26:57.842Z,42.87
2024-03-12T18:29:27.686Z,42.16
2024-03-12T18:31:58.347Z,42.98
2024-03-12T18:34:26.688Z,42.67
2024-03-12T18:36:55.255Z,43.17
2024-03-12T18:39:24.165Z,42.14
2024-03-12T18:41:54.813Z,42.06
2024-03-12T18:44:23.933Z,42.32
2024-03-12T18:46:54.037Z,42.98
2024-03-12T18:49:23.007Z,43.01
2024-03-12T18:51:52.263Z,43.30
2024-03-12T18:54:21.677Z,42.91
2024-03-12T18:56:51.166Z,42.82
2024-03-12T18:59:20.168Z,42.40
2024-03-12T19:01:51.142Z,43.57
2024-03-12T19:04:25.205Z,43.07
2024-03-12T19:06:54.237Z,43.32
2024-03-12T19:09:24.466Z,43.20
2024-03-12T19:11:53.483Z,43.81
2024-03-12T19:14:22.803Z,43.67
2024-03-12T19:16:54.182Z,43.12
2024-03-12T19:19:30.201Z,43.44
2024-03-12T19:21:59.803Z,43.82
2024-03-12T19:24:28.042Z,43.94
2024-03-12T19:26:57.755Z,43.61
2024-03-12T19:29:26.043Z,43.57
2024-03-12T19:31:55.123Z,43.85
2024-03-12T19:34:26.983Z,44.13
2024-03-12T19:36:55.958Z,43.74
2024-03-12T19:39:27.348Z,43.76
2024-03-12T19:41:56.324Z,44.39
2024-03-12T19:44:25.108Z,43.93
2024-03-12T19:46:54.171Z,43.90
2024-03-12T19:49:25.471Z,43.65
2024-03-12T19:51:54.484Z,44.44
2024-03-12T19:54:23.115Z,44.37
2024-03-12T19:56:51.366Z,43.61
2024-03-12T19:59:20.052Z,43.42
2024-03-12T20:01:48.744Z,44.33
2024-03-12T20:04:17.247Z,44.03
2024-03-12T20:06:47.666Z,43.62
2024-03-12T20:09:23.846Z,43.79
2024-03-12T20:11:53.209Z,43.82
2024-03-12T20:14:25.150Z,43.88
2024-03-12T20:16:53.491Z,43.50
2024-03-12T20:19:22.445Z,44.20
2024-03-12T20:21:52.232Z,44.67
2024-03-12T20:24:21.284Z,43.88
2024-03-12T20:26:49.533Z,43.90
2024-03-12T20:29:17.738Z,44.84
2024-03-12T20:31:46.986Z,44.38
2024-03-12T20:34:16.976Z,44.92
2024-03-12T20:36:47.086Z,44.60
2024-03-12T20:39:16.882Z,44.47
2024-03-12T20:41:45.293Z,44.79
2024-03-12T20:44:13.574Z,44.71
2024-03-12T20:46:41.732Z,44.38
2024-03-12T20:49:10.168Z,45.13
2024-03-12T20:51:38.419Z,44.84
2024-03-12T20:54:08.299Z,44.94
2024-03-12T20:56:37.926Z,44.72
2024-03-12T20:59:06.798Z,45.00
2024-03-12T21:01:36.283Z,45.32
2024-03-12T21:04:06.802Z,45.23
2024-03-12T21:06:35.214Z,45.19
2024-03-12T21:09:11.623Z,44.84
2024-03-12T21:11:41.578Z,44.27
2024-03-12T21:14:09.815Z,44.31
2024-03-12T21:16:38.068Z,45.23
2024-03-12T21:19:06.307Z,44.80
2024-03-12T21:21:34.726Z,45.51
2024-03-12T21:24:02.966Z,44.74
2024-03-12T21:26:31.584Z,45.12
2024-03-12T21:29:01.337Z,45.86
2024-03-12T21:31:30.081Z,45.86
2024-03-12T21:33:59.954Z,46.29
2024-03-12T21:36:28.426Z,46.60
2024-03-12T21:38:56.774Z,46.78
2024-03-12T21:41:25.122Z,47.33
2024-03-12T21:43:54.165Z,47.24
2024-03-12T21:46:24.119Z,46.96
2024-03-12T21:48:52.803Z,47.50
2024-03-12T21:51:21.047Z,48.39
2024-03-12T21:53:49.656Z,47.89
2024-03-12T21:56:17.933Z,47.92
2024-03-12T21:58:48.926Z,48.29
2024-03-12T22:01:17.350Z,48.90
2024-03-12T22:03:50.112Z,48.75
2024-03-12T22:06:18.803Z,49.48
2024-03-12T22:08:47.004Z,49.73
2024-03-12T22:11:16.172Z,49.25
2024-03-12T22:13:45.682Z,50.08
2024-03-12T22:16:17.318Z,49.50
2024-03-12T22:18:48.110Z,50.32
2024-03-12T22:21:16.831Z,50.30
2024-03-12T22:23:46.309Z,50.28
2024-03-12T22:26:15.810Z,50.04
2024-03-12T22:28:44.011Z,50.70
2024-03-12T22:31:13.362Z,50.84
2024-03-12T22:33:41.807Z,51.25
2024-03-12T22:36:12.489Z,50.71
2024-03-12T22:38:41.302Z,50.87
2024-03-12T22:41:10.583Z,51.48
2024-03-12T22:43:39.812Z,50.82
2024-03-12T22:46:11.898Z,50.90
2024-03-12T22:48:42.141Z,51.17
2024-03-12T22:51:13.868Z,51.22
2024-03-12T22:53:46.664Z,51.51
2024-03-12T22:56:18.564Z,52.06
2024-03-12T22:58:47.377Z,52.02
2024-03-12T23:01:18.332Z,51.64
2024-03-12T23:03:47.156Z,52.39
2024-03-12T23:06:18.026Z,52.41
2024-03-12T23:08:46.847Z,52.10
2024-03-12T23:11:15.819Z,52.48
2024-03-12T23:13:44.171Z,52.48
2024-03-12T23:16:12.373Z,52.62
2024-03-12T23:18:40.929Z,53.21
2024-03-12T23:21:11.576Z,52.53
2024-03-12T23:23:41.238Z,52.91
2024-03-12T23:26:09.415Z,53.20
2024-03-12T23:28:37.508Z,53.57
2024-03-12T23:31:07.536Z,53.65
2024-03-12T23:33:35.910Z,53.95
2024-03-12T23:36:06.508Z,53.81
2024-03-12T23:38:36.042Z,53.57
2024-03-12T23:41:06.147Z,53.62
2024-03-12T23:43:35.176Z,53.11
2024-03-12T23:46:07.812Z,53.53
2024-03-12T23:48:36.372Z,53.66
2024-03-12T23:51:05.254Z,53.04
2024-03-12T23:53:33.814Z,53.34
2024-03-12T23:56:02.116Z,53.74
2024-03-12T23:58:33.321Z,53.47
